sensor_id;sensor_type;location;lat;lon;timestamp;temperature;humidity
43772;HTU21D;59066;54.782;32.024;2022-12-13T00:01:24;-2.05;78.62
43772;HTU21D;59066;54.782;32.024;2022-12-13T00:03:52;-1.94;78.52
43772;HTU21D;59066;54.782;32.024;2022-12-13T00:06:20;-2.02;78.02
43772;HTU21D;59066;54.782;32.024;2022-12-13T00:08:48;-1.94;78.42
43772;HTU21D;59066;54.782;32.024;2022-12-13T00:11:16;-1.91;78.36
43772;HTU21D;59066;54.782;32.024;2022-12-13T00:13:43;-1.89;78.38
43772;HTU21D;59066;54.782;32.024;2022-12-13T00:16:16;-1.94;77.91
43772;HTU21D;59066;54.782;32.024;2022-12-13T00:18:48;-1.92;78.20
43772;HTU21D;59066;54.782;32.024;2022-12-13T00:21:18;-1.93;78.35
43772;HTU21D;59066;54.782;32.024;2022-12-13T00:23:46;-1.94;78.54
43772;HTU21D;59066;54.782;32.024;2022-12-13T00:26:16;-1.97;78.61
43772;HTU21D;59066;54.782;32.024;2022-12-13T00:28:45;-1.91;78.96
43772;HTU21D;59066;54.782;32.024;2022-12-13T00:31:16;-1.86;79.14
43772;HTU21D;59066;54.782;32.024;2022-12-13T00:34:03;-1.82;79.19
43772;HTU21D;59066;54.782;32.024;2022-12-13T00:36:31;-1.79;79.30
43772;HTU21D;59066;54.782;32.024;2022-12-13T00:38:58;-1.82;79.34
43772;HTU21D;59066;54.782;32.024;2022-12-13T00:41:33;-1.82;79.46
43772;HTU21D;59066;54.782;32.024;2022-12-13T00:44:02;-1.78;79.63
43772;HTU21D;59066;54.782;32.024;2022-12-13T00:46:30;-1.77;79.98
43772;HTU21D;59066;54.782;32.024;2022-12-13T00:48:59;-1.72;79.91
43772;HTU21D;59066;54.782;32.024;2022-12-13T00:51:28;-1.76;79.69
43772;HTU21D;59066;54.782;32.024;2022-12-13T00:53:56;-1.79;79.78
43772;HTU21D;59066;54.782;32.024;2022-12-13T00:56:26;-1.87;79.43
43772;HTU21D;59066;54.782;32.024;2022-12-13T00:58:54;-1.86;79.81
43772;HTU21D;59066;54.782;32.024;2022-12-13T01:01:27;-1.85;79.85
43772;HTU21D;59066;54.782;32.024;2022-12-13T01:03:57;-1.83;79.93
43772;HTU21D;59066;54.782;32.024;2022-12-13T01:06:36;-1.82;80.24
43772;HTU21D;59066;54.782;32.024;2022-12-13T01:09:06;-1.79;80.23
43772;HTU21D;59066;54.782;32.024;2022-12-13T01:11:34;-1.77;80.39
43772;HTU21D;59066;54.782;32.024;2022-12-13T01:14:01;-1.82;80.28
43772;HTU21D;59066;54.782;32.024;2022-12-13T01:16:29;-1.83;80.42
43772;HTU21D;59066;54.782;32.024;2022-12-13T01:18:57;-1.88;80.42
43772;HTU21D;59066;54.782;32.024;2022-12-13T01:21:24;-1.78;80.83
43772;HTU21D;59066;54.782;32.024;2022-12-13T01:23:52;-1.82;80.83
43772;HTU21D;59066;54.782;32.024;2022-12-13T01:26:20;-1.93;80.90
43772;HTU21D;59066;54.782;32.024;2022-12-13T01:28:48;-1.92;81.50
43772;HTU21D;59066;54.782;32.024;2022-12-13T01:31:18;-1.89;81.65
43772;HTU21D;59066;54.782;32.024;2022-12-13T01:33:46;-1.90;81.83
43772;HTU21D;59066;54.782;32.024;2022-12-13T01:36:17;-1.90;82.09
43772;HTU21D;59066;54.782;32.024;2022-12-13T01:38:44;-1.88;82.30
43772;HTU21D;59066;54.782;32.024;2022-12-13T01:41:14;-1.94;82.34
43772;HTU21D;59066;54.782;32.024;2022-12-13T01:46:12;-1.92;82.87
43772;HTU21D;59066;54.782;32.024;2022-12-13T01:48:44;-1.91;83.16
43772;HTU21D;59066;54.782;32.024;2022-12-13T01:51:15;-1.93;83.13
43772;HTU21D;59066;54.782;32.024;2022-12-13T01:53:46;-2.00;83.24
43772;HTU21D;59066;54.782;32.024;2022-12-13T01:56:20;-2.01;83.61
43772;HTU21D;59066;54.782;32.024;2022-12-13T01:58:51;-1.93;83.55
43772;HTU21D;59066;54.782;32.024;2022-12-13T02:01:21;-1.91;83.64
43772;HTU21D;59066;54.782;32.024;2022-12-13T02:03:49;-1.92;83.51
43772;HTU21D;59066;54.782;32.024;2022-12-13T02:06:42;-1.89;83.62
43772;HTU21D;59066;54.782;32.024;2022-12-13T02:09:08;-1.89;83.43
43772;HTU21D;59066;54.782;32.024;2022-12-13T02:11:38;-1.90;83.20
43772;HTU21D;59066;54.782;32.024;2022-12-13T02:14:07;-1.93;83.13
43772;HTU21D;59066;54.782;32.024;2022-12-13T02:28:01;-2.09;83.01
43772;HTU21D;59066;54.782;32.024;2022-12-13T02:30:51;-2.13;83.10
43772;HTU21D;59066;54.782;32.024;2022-12-13T02:39:25;-2.12;83.23
43772;HTU21D;59066;54.782;32.024;2022-12-13T02:42:00;-2.12;83.29
43772;HTU21D;59066;54.782;32.024;2022-12-13T02:44:34;-2.09;83.32
43772;HTU21D;59066;54.782;32.024;2022-12-13T02:49:41;-2.18;83.28
43772;HTU21D;59066;54.782;32.024;2022-12-13T02:52:11;-2.18;83.35
43772;HTU21D;59066;54.782;32.024;2022-12-13T02:54:40;-2.19;83.35
43772;HTU21D;59066;54.782;32.024;2022-12-13T02:57:28;-2.18;83.45
43772;HTU21D;59066;54.782;32.024;2022-12-13T02:59:58;-2.09;83.61
43772;HTU21D;59066;54.782;32.024;2022-12-13T03:05:35;-2.13;83.38
43772;HTU21D;59066;54.782;32.024;2022-12-13T03:11:05;-2.27;83.29
43772;HTU21D;59066;54.782;32.024;2022-12-13T03:13:48;-2.31;83.43
43772;HTU21D;59066;54.782;32.024;2022-12-13T03:16:30;-2.33;83.31
43772;HTU21D;59066;54.782;32.024;2022-12-13T03:19:07;-2.34;83.37
43772;HTU21D;59066;54.782;32.024;2022-12-13T03:21:47;-2.33;83.56
43772;HTU21D;59066;54.782;32.024;2022-12-13T03:24:19;-2.30;83.42
43772;HTU21D;59066;54.782;32.024;2022-12-13T03:26:50;-2.28;83.49
43772;HTU21D;59066;54.782;32.024;2022-12-13T03:29:20;-2.27;83.37
43772;HTU21D;59066;54.782;32.024;2022-12-13T03:31:49;-2.20;83.45
43772;HTU21D;59066;54.782;32.024;2022-12-13T03:34:16;-2.21;83.18
43772;HTU21D;59066;54.782;32.024;2022-12-13T03:36:50;-2.15;83.04
43772;HTU21D;59066;54.782;32.024;2022-12-13T03:39:17;-2.19;83.04
43772;HTU21D;59066;54.782;32.024;2022-12-13T03:41:45;-2.21;82.97
43772;HTU21D;59066;54.782;32.024;2022-12-13T03:44:13;-2.20;83.13
43772;HTU21D;59066;54.782;32.024;2022-12-13T03:46:40;-2.14;83.09
43772;HTU21D;59066;54.782;32.024;2022-12-13T03:49:07;-2.13;83.06
43772;HTU21D;59066;54.782;32.024;2022-12-13T03:51:39;-2.13;82.93
43772;HTU21D;59066;54.782;32.024;2022-12-13T03:54:06;-2.09;82.99
43772;HTU21D;59066;54.782;32.024;2022-12-13T03:56:34;-2.06;82.94
43772;HTU21D;59066;54.782;32.024;2022-12-13T03:59:02;-2.03;82.97
43772;HTU21D;59066;54.782;32.024;2022-12-13T04:01:29;-2.03;83.00
43772;HTU21D;59066;54.782;32.024;2022-12-13T04:03:57;-2.09;82.86
43772;HTU21D;59066;54.782;32.024;2022-12-13T04:06:24;-2.07;83.15
43772;HTU21D;59066;54.782;32.024;2022-12-13T04:08:57;-2.05;83.07
43772;HTU21D;59066;54.782;32.024;2022-12-13T04:11:24;-2.01;83.30
43772;HTU21D;59066;54.782;32.024;2022-12-13T04:14:10;-1.91;83.23
43772;HTU21D;59066;54.782;32.024;2022-12-13T04:16:48;-1.97;83.22
43772;HTU21D;59066;54.782;32.024;2022-12-13T04:19:16;-1.90;83.36
43772;HTU21D;59066;54.782;32.024;2022-12-13T04:21:49;-1.88;83.22
43772;HTU21D;59066;54.782;32.024;2022-12-13T04:24:17;-1.85;83.21
43772;HTU21D;59066;54.782;32.024;2022-12-13T04:26:44;-1.85;83.21
43772;HTU21D;59066;54.782;32.024;2022-12-13T04:29:12;-1.89;83.26
43772;HTU21D;59066;54.782;32.024;2022-12-13T04:31:39;-1.83;83.49
43772;HTU21D;59066;54.782;32.024;2022-12-13T04:34:07;-1.72;83.29
43772;HTU21D;59066;54.782;32.024;2022-12-13T04:36:34;-1.84;83.07
43772;HTU21D;59066;54.782;32.024;2022-12-13T04:39:03;-1.89;83.11
43772;HTU21D;59066;54.782;32.024;2022-12-13T04:41:48;-1.87;83.11
43772;HTU21D;59066;54.782;32.024;2022-12-13T04:44:16;-1.78;83.29
43772;HTU21D;59066;54.782;32.024;2022-12-13T04:46:53;-1.83;82.93
43772;HTU21D;59066;54.782;32.024;2022-12-13T04:49:20;-1.77;83.17
43772;HTU21D;59066;54.782;32.024;2022-12-13T04:51:48;-1.78;83.00
43772;HTU21D;59066;54.782;32.024;2022-12-13T04:54:23;-1.82;82.93
43772;HTU21D;59066;54.782;32.024;2022-12-13T04:56:50;-1.86;83.04
43772;HTU21D;59066;54.782;32.024;2022-12-13T04:59:18;-1.84;83.17
43772;HTU21D;59066;54.782;32.024;2022-12-13T05:01:45;-1.84;83.24
43772;HTU21D;59066;54.782;32.024;2022-12-13T05:04:12;-1.80;83.17
43772;HTU21D;59066;54.782;32.024;2022-12-13T05:06:40;-1.79;83.25
43772;HTU21D;59066;54.782;32.024;2022-12-13T05:09:07;-1.75;83.19
43772;HTU21D;59066;54.782;32.024;2022-12-13T05:11:37;-1.70;82.97
43772;HTU21D;59066;54.782;32.024;2022-12-13T05:14:04;-1.70;82.76
43772;HTU21D;59066;54.782;32.024;2022-12-13T05:16:32;-1.70;82.98
43772;HTU21D;59066;54.782;32.024;2022-12-13T05:18:59;-1.64;82.97
43772;HTU21D;59066;54.782;32.024;2022-12-13T05:21:26;-1.61;82.95
43772;HTU21D;59066;54.782;32.024;2022-12-13T05:23:54;-1.63;82.78
43772;HTU21D;59066;54.782;32.024;2022-12-13T05:26:21;-1.64;82.66
43772;HTU21D;59066;54.782;32.024;2022-12-13T05:28:49;-1.59;82.78
43772;HTU21D;59066;54.782;32.024;2022-12-13T05:31:16;-1.59;82.78
43772;HTU21D;59066;54.782;32.024;2022-12-13T05:33:50;-1.58;82.42
43772;HTU21D;59066;54.782;32.024;2022-12-13T05:36:17;-1.59;82.43
43772;HTU21D;59066;54.782;32.024;2022-12-13T05:38:45;-1.59;82.23
43772;HTU21D;59066;54.782;32.024;2022-12-13T05:41:15;-1.53;82.73
43772;HTU21D;59066;54.782;32.024;2022-12-13T05:43:43;-1.55;82.40
43772;HTU21D;59066;54.782;32.024;2022-12-13T05:46:11;-1.56;82.33
43772;HTU21D;59066;54.782;32.024;2022-12-13T05:48:40;-1.52;82.14
43772;HTU21D;59066;54.782;32.024;2022-12-13T05:51:08;-1.57;81.87
43772;HTU21D;59066;54.782;32.024;2022-12-13T05:53:39;-1.57;82.04
43772;HTU21D;59066;54.782;32.024;2022-12-13T05:56:08;-1.53;81.95
43772;HTU21D;59066;54.782;32.024;2022-12-13T05:58:38;-1.47;82.02
43772;HTU21D;59066;54.782;32.024;2022-12-13T06:01:08;-1.48;81.82
43772;HTU21D;59066;54.782;32.024;2022-12-13T06:03:35;-1.46;82.17
43772;HTU21D;59066;54.782;32.024;2022-12-13T06:06:04;-1.54;81.61
43772;HTU21D;59066;54.782;32.024;2022-12-13T06:08:32;-1.52;81.94
43772;HTU21D;59066;54.782;32.024;2022-12-13T06:11:01;-1.44;81.91
43772;HTU21D;59066;54.782;32.024;2022-12-13T06:13:41;-1.42;81.80
43772;HTU21D;59066;54.782;32.024;2022-12-13T06:16:12;-1.42;81.68
43772;HTU21D;59066;54.782;32.024;2022-12-13T06:18:49;-1.47;81.43
43772;HTU21D;59066;54.782;32.024;2022-12-13T06:21:19;-1.45;81.57
43772;HTU21D;59066;54.782;32.024;2022-12-13T06:23:46;-1.36;81.70
43772;HTU21D;59066;54.782;32.024;2022-12-13T06:26:14;-1.29;81.48
43772;HTU21D;59066;54.782;32.024;2022-12-13T06:28:41;-1.31;81.66
43772;HTU21D;59066;54.782;32.024;2022-12-13T06:31:08;-1.29;81.62
43772;HTU21D;59066;54.782;32.024;2022-12-13T06:33:36;-1.30;81.30
43772;HTU21D;59066;54.782;32.024;2022-12-13T06:36:05;-1.32;81.21
43772;HTU21D;59066;54.782;32.024;2022-12-13T06:38:32;-1.33;80.88
43772;HTU21D;59066;54.782;32.024;2022-12-13T06:41:26;-1.35;81.16
43772;HTU21D;59066;54.782;32.024;2022-12-13T06:43:58;-1.28;80.81
43772;HTU21D;59066;54.782;32.024;2022-12-13T06:46:25;-1.28;80.64
43772;HTU21D;59066;54.782;32.024;2022-12-13T06:48:53;-1.21;80.75
43772;HTU21D;59066;54.782;32.024;2022-12-13T06:51:20;-1.20;80.52
43772;HTU21D;59066;54.782;32.024;2022-12-13T06:53:49;-1.19;80.16
43772;HTU21D;59066;54.782;32.024;2022-12-13T06:56:17;-1.25;79.52
43772;HTU21D;59066;54.782;32.024;2022-12-13T06:58:44;-1.23;79.65
43772;HTU21D;59066;54.782;32.024;2022-12-13T07:01:14;-1.24;79.60
43772;HTU21D;59066;54.782;32.024;2022-12-13T07:03:49;-1.20;79.84
43772;HTU21D;59066;54.782;32.024;2022-12-13T07:06:18;-1.15;80.01
43772;HTU21D;59066;54.782;32.024;2022-12-13T07:08:49;-1.12;79.80
43772;HTU21D;59066;54.782;32.024;2022-12-13T07:11:23;-1.11;79.92
43772;HTU21D;59066;54.782;32.024;2022-12-13T07:13:52;-1.14;79.64
43772;HTU21D;59066;54.782;32.024;2022-12-13T07:16:20;-1.12;79.53
43772;HTU21D;59066;54.782;32.024;2022-12-13T07:19:01;-1.04;79.88
43772;HTU21D;59066;54.782;32.024;2022-12-13T07:21:30;-1.08;79.98
43772;HTU21D;59066;54.782;32.024;2022-12-13T07:23:58;-1.04;79.37
43772;HTU21D;59066;54.782;32.024;2022-12-13T07:26:25;-1.12;79.39
43772;HTU21D;59066;54.782;32.024;2022-12-13T07:28:53;-1.06;79.56
43772;HTU21D;59066;54.782;32.024;2022-12-13T07:31:22;-1.08;79.21
43772;HTU21D;59066;54.782;32.024;2022-12-13T07:33:50;-1.12;79.22
43772;HTU21D;59066;54.782;32.024;2022-12-13T07:36:20;-1.06;79.54
43772;HTU21D;59066;54.782;32.024;2022-12-13T07:38:55;-1.02;79.40
43772;HTU21D;59066;54.782;32.024;2022-12-13T07:41:23;-1.08;78.75
43772;HTU21D;59066;54.782;32.024;2022-12-13T07:43:53;-1.01;79.17
43772;HTU21D;59066;54.782;32.024;2022-12-13T07:46:22;-1.01;78.53
43772;HTU21D;59066;54.782;32.024;2022-12-13T07:49:00;-1.00;78.27
43772;HTU21D;59066;54.782;32.024;2022-12-13T07:51:33;-0.99;78.24
43772;HTU21D;59066;54.782;32.024;2022-12-13T07:54:01;-0.95;78.14
43772;HTU21D;59066;54.782;32.024;2022-12-13T07:56:32;-0.93;77.95
43772;HTU21D;59066;54.782;32.024;2022-12-13T07:58:59;-0.95;77.61
43772;HTU21D;59066;54.782;32.024;2022-12-13T08:01:31;-1.02;76.64
43772;HTU21D;59066;54.782;32.024;2022-12-13T08:04:01;-0.96;76.81
43772;HTU21D;59066;54.782;32.024;2022-12-13T08:06:31;-0.96;77.03
43772;HTU21D;59066;54.782;32.024;2022-12-13T08:09:00;-0.89;77.45
43772;HTU21D;59066;54.782;32.024;2022-12-13T08:11:28;-0.87;77.17
43772;HTU21D;59066;54.782;32.024;2022-12-13T08:13:55;-0.94;76.08
43772;HTU21D;59066;54.782;32.024;2022-12-13T08:16:23;-1.00;75.93
43772;HTU21D;59066;54.782;32.024;2022-12-13T08:18:55;-0.98;75.70
43772;HTU21D;59066;54.782;32.024;2022-12-13T08:21:35;-1.00;75.41
43772;HTU21D;59066;54.782;32.024;2022-12-13T08:24:20;-0.85;76.15
43772;HTU21D;59066;54.782;32.024;2022-12-13T08:26:48;-0.87;75.76
43772;HTU21D;59066;54.782;32.024;2022-12-13T08:29:16;-0.87;76.25
43772;HTU21D;59066;54.782;32.024;2022-12-13T08:31:48;-0.94;75.99
43772;HTU21D;59066;54.782;32.024;2022-12-13T08:34:16;-0.94;76.41
43772;HTU21D;59066;54.782;32.024;2022-12-13T08:36:43;-0.89;76.79
43772;HTU21D;59066;54.782;32.024;2022-12-13T08:39:10;-0.85;77.07
43772;HTU21D;59066;54.782;32.024;2022-12-13T08:41:38;-0.84;76.86
43772;HTU21D;59066;54.782;32.024;2022-12-13T08:44:05;-0.74;77.04
43772;HTU21D;59066;54.782;32.024;2022-12-13T08:46:33;-0.72;76.63
43772;HTU21D;59066;54.782;32.024;2022-12-13T08:49:00;-0.76;75.88
43772;HTU21D;59066;54.782;32.024;2022-12-13T08:51:27;-0.61;76.02
43772;HTU21D;59066;54.782;32.024;2022-12-13T08:54:01;-0.67;75.86
43772;HTU21D;59066;54.782;32.024;2022-12-13T08:56:36;-0.65;75.37
43772;HTU21D;59066;54.782;32.024;2022-12-13T08:59:04;-0.67;74.89
43772;HTU21D;59066;54.782;32.024;2022-12-13T09:01:32;-0.60;75.27
43772;HTU21D;59066;54.782;32.024;2022-12-13T09:03:59;-0.64;74.30
43772;HTU21D;59066;54.782;32.024;2022-12-13T09:06:26;-0.65;74.51
43772;HTU21D;59066;54.782;32.024;2022-12-13T09:08:54;-0.56;74.82
43772;HTU21D;59066;54.782;32.024;2022-12-13T09:11:22;-0.58;73.94
43772;HTU21D;59066;54.782;32.024;2022-12-13T09:14:00;-0.66;73.49
43772;HTU21D;59066;54.782;32.024;2022-12-13T09:16:27;-0.69;74.13
43772;HTU21D;59066;54.782;32.024;2022-12-13T09:19:03;-0.61;74.63
43772;HTU21D;59066;54.782;32.024;2022-12-13T09:21:32;-0.55;74.85
43772;HTU21D;59066;54.782;32.024;2022-12-13T09:23:59;-0.50;73.99
43772;HTU21D;59066;54.782;32.024;2022-12-13T09:26:28;-0.52;74.15
43772;HTU21D;59066;54.782;32.024;2022-12-13T09:28:55;-0.47;74.56
43772;HTU21D;59066;54.782;32.024;2022-12-13T09:31:23;-0.45;74.54
43772;HTU21D;59066;54.782;32.024;2022-12-13T09:33:51;-0.41;74.73
43772;HTU21D;59066;54.782;32.024;2022-12-13T09:36:19;-0.35;74.64
43772;HTU21D;59066;54.782;32.024;2022-12-13T09:38:47;-0.28;74.83
43772;HTU21D;59066;54.782;32.024;2022-12-13T09:41:19;-0.21;75.62
43772;HTU21D;59066;54.782;32.024;2022-12-13T09:43:57;-0.14;75.09
43772;HTU21D;59066;54.782;32.024;2022-12-13T09:46:30;-0.23;74.50
43772;HTU21D;59066;54.782;32.024;2022-12-13T09:49:03;-0.21;74.83
43772;HTU21D;59066;54.782;32.024;2022-12-13T09:51:32;-0.24;75.13
43772;HTU21D;59066;54.782;32.024;2022-12-13T09:54:15;-0.29;74.79
43772;HTU21D;59066;54.782;32.024;2022-12-13T09:56:45;-0.27;75.39
43772;HTU21D;59066;54.782;32.024;2022-12-13T09:59:22;-0.36;74.60
43772;HTU21D;59066;54.782;32.024;2022-12-13T10:01:51;-0.26;75.29
43772;HTU21D;59066;54.782;32.024;2022-12-13T10:04:19;-0.31;74.79
43772;HTU21D;59066;54.782;32.024;2022-12-13T10:06:51;-0.20;75.09
43772;HTU21D;59066;54.782;32.024;2022-12-13T10:09:19;-0.32;73.92
43772;HTU21D;59066;54.782;32.024;2022-12-13T10:11:49;-0.27;74.70
43772;HTU21D;59066;54.782;32.024;2022-12-13T10:14:29;-0.27;74.76
43772;HTU21D;59066;54.782;32.024;2022-12-13T10:17:02;-0.14;74.42
43772;HTU21D;59066;54.782;32.024;2022-12-13T10:19:40;-0.24;74.10
43772;HTU21D;59066;54.782;32.024;2022-12-13T10:22:12;-0.30;73.80
43772;HTU21D;59066;54.782;32.024;2022-12-13T10:24:56;-0.21;74.73
43772;HTU21D;59066;54.782;32.024;2022-12-13T10:30:22;-0.11;74.09
43772;HTU21D;59066;54.782;32.024;2022-12-13T10:32:59;-0.19;73.68
43772;HTU21D;59066;54.782;32.024;2022-12-13T10:35:32;-0.25;73.91
43772;HTU21D;59066;54.782;32.024;2022-12-13T10:38:25;-0.14;74.73
43772;HTU21D;59066;54.782;32.024;2022-12-13T10:40:57;-0.01;75.07
43772;HTU21D;59066;54.782;32.024;2022-12-13T10:43:27;0.02;75.08
43772;HTU21D;59066;54.782;32.024;2022-12-13T10:51:12;-0.01;74.23
43772;HTU21D;59066;54.782;32.024;2022-12-13T10:56:15;-0.16;74.19
43772;HTU21D;59066;54.782;32.024;2022-12-13T10:58:51;-0.24;73.91
43772;HTU21D;59066;54.782;32.024;2022-12-13T11:01:39;-0.27;74.28
43772;HTU21D;59066;54.782;32.024;2022-12-13T11:04:25;-0.25;75.07
43772;HTU21D;59066;54.782;32.024;2022-12-13T11:06:55;-0.21;74.84
43772;HTU21D;59066;54.782;32.024;2022-12-13T11:09:30;-0.29;74.28
43772;HTU21D;59066;54.782;32.024;2022-12-13T11:12:13;-0.28;74.86
43772;HTU21D;59066;54.782;32.024;2022-12-13T11:17:28;-0.15;75.08
43772;HTU21D;59066;54.782;32.024;2022-12-13T11:20:02;-0.14;75.02
43772;HTU21D;59066;54.782;32.024;2022-12-13T11:22:36;-0.20;74.78
43772;HTU21D;59066;54.782;32.024;2022-12-13T11:25:25;-0.22;74.64
43772;HTU21D;59066;54.782;32.024;2022-12-13T11:31:14;-0.29;74.62
43772;HTU21D;59066;54.782;32.024;2022-12-13T11:39:33;-0.15;75.19
43772;HTU21D;59066;54.782;32.024;2022-12-13T11:42:26;-0.25;74.89
43772;HTU21D;59066;54.782;32.024;2022-12-13T11:47:54;-0.23;75.20
43772;HTU21D;59066;54.782;32.024;2022-12-13T11:50:33;-0.23;75.15
43772;HTU21D;59066;54.782;32.024;2022-12-13T11:55:58;-0.29;74.90
43772;HTU21D;59066;54.782;32.024;2022-12-13T11:58:50;-0.34;74.84
43772;HTU21D;59066;54.782;32.024;2022-12-13T12:04:42;-0.28;75.28
43772;HTU21D;59066;54.782;32.024;2022-12-13T12:07:14;-0.26;75.31
43772;HTU21D;59066;54.782;32.024;2022-12-13T12:12:57;-0.25;75.44
43772;HTU21D;59066;54.782;32.024;2022-12-13T12:15:35;-0.26;75.41
43772;HTU21D;59066;54.782;32.024;2022-12-13T12:18:12;-0.24;75.30
43772;HTU21D;59066;54.782;32.024;2022-12-13T12:21:12;-0.31;75.53
43772;HTU21D;59066;54.782;32.024;2022-12-13T12:24:01;-0.29;75.65
43772;HTU21D;59066;54.782;32.024;2022-12-13T12:29:38;-0.38;75.57
43772;HTU21D;59066;54.782;32.024;2022-12-13T12:43:36;-0.53;75.75
43772;HTU21D;59066;54.782;32.024;2022-12-13T12:52:07;-0.44;76.12
43772;HTU21D;59066;54.782;32.024;2022-12-13T13:00:14;-0.49;76.13
43772;HTU21D;59066;54.782;32.024;2022-12-13T13:08:11;-0.40;76.40
43772;HTU21D;59066;54.782;32.024;2022-12-13T13:10:40;-0.46;76.29
43772;HTU21D;59066;54.782;32.024;2022-12-13T13:13:46;-0.39;76.71
43772;HTU21D;59066;54.782;32.024;2022-12-13T13:16:36;-0.39;76.57
43772;HTU21D;59066;54.782;32.024;2022-12-13T13:19:37;-0.34;76.82
43772;HTU21D;59066;54.782;32.024;2022-12-13T13:21:54;-0.26;76.97
43772;HTU21D;59066;54.782;32.024;2022-12-13T13:24:29;-0.28;76.86
43772;HTU21D;59066;54.782;32.024;2022-12-13T13:27:24;-0.28;76.81
43772;HTU21D;59066;54.782;32.024;2022-12-13T13:29:46;-0.21;77.05
43772;HTU21D;59066;54.782;32.024;2022-12-13T13:37:55;-0.37;76.68
43772;HTU21D;59066;54.782;32.024;2022-12-13T13:40:31;-0.37;77.08
43772;HTU21D;59066;54.782;32.024;2022-12-13T13:54:27;-0.37;77.69
43772;HTU21D;59066;54.782;32.024;2022-12-13T14:26:13;-0.51;78.69
43772;HTU21D;59066;54.782;32.024;2022-12-13T14:31:24;-0.57;78.69
43772;HTU21D;59066;54.782;32.024;2022-12-13T14:33:54;-0.57;78.92
43772;HTU21D;59066;54.782;32.024;2022-12-13T14:36:30;-0.67;78.66
43772;HTU21D;59066;54.782;32.024;2022-12-13T14:39:11;-0.62;79.08
43772;HTU21D;59066;54.782;32.024;2022-12-13T14:41:46;-0.67;79.06
43772;HTU21D;59066;54.782;32.024;2022-12-13T14:44:24;-0.62;79.18
43772;HTU21D;59066;54.782;32.024;2022-12-13T14:47:06;-0.61;79.17
43772;HTU21D;59066;54.782;32.024;2022-12-13T14:49:42;-0.60;79.14
43772;HTU21D;59066;54.782;32.024;2022-12-13T14:52:21;-0.62;79.02
43772;HTU21D;59066;54.782;32.024;2022-12-13T14:54:57;-0.67;79.20
43772;HTU21D;59066;54.782;32.024;2022-12-13T14:57:28;-0.66;79.32
43772;HTU21D;59066;54.782;32.024;2022-12-13T14:59:58;-0.71;79.15
43772;HTU21D;59066;54.782;32.024;2022-12-13T15:02:28;-0.66;79.30
43772;HTU21D;59066;54.782;32.024;2022-12-13T15:05:04;-0.67;79.22
43772;HTU21D;59066;54.782;32.024;2022-12-13T15:07:38;-0.72;79.23
43772;HTU21D;59066;54.782;32.024;2022-12-13T15:12:47;-0.70;78.92
43772;HTU21D;59066;54.782;32.024;2022-12-13T15:15:31;-0.74;79.49
43772;HTU21D;59066;54.782;32.024;2022-12-13T15:18:19;-0.72;79.47
43772;HTU21D;59066;54.782;32.024;2022-12-13T15:20:55;-0.73;79.41
43772;HTU21D;59066;54.782;32.024;2022-12-13T15:23:33;-0.75;79.67
43772;HTU21D;59066;54.782;32.024;2022-12-13T15:26:23;-0.70;79.71
43772;HTU21D;59066;54.782;32.024;2022-12-13T15:29:04;-0.70;79.79
43772;HTU21D;59066;54.782;32.024;2022-12-13T15:31:38;-0.65;79.72
43772;HTU21D;59066;54.782;32.024;2022-12-13T15:36:59;-0.69;79.69
43772;HTU21D;59066;54.782;32.024;2022-12-13T15:39:28;-0.79;79.57
43772;HTU21D;59066;54.782;32.024;2022-12-13T15:41:57;-0.75;79.80
43772;HTU21D;59066;54.782;32.024;2022-12-13T15:44:31;-0.73;79.86
43772;HTU21D;59066;54.782;32.024;2022-12-13T15:47:04;-0.76;79.75
43772;HTU21D;59066;54.782;32.024;2022-12-13T15:49:52;-0.69;79.86
43772;HTU21D;59066;54.782;32.024;2022-12-13T15:55:20;-0.69;79.89
43772;HTU21D;59066;54.782;32.024;2022-12-13T15:57:52;-0.73;80.11
43772;HTU21D;59066;54.782;32.024;2022-12-13T16:03:10;-0.59;80.14
43772;HTU21D;59066;54.782;32.024;2022-12-13T16:05:45;-0.68;79.90
43772;HTU21D;59066;54.782;32.024;2022-12-13T16:08:28;-0.65;79.81
43772;HTU21D;59066;54.782;32.024;2022-12-13T16:10:56;-0.67;79.78
43772;HTU21D;59066;54.782;32.024;2022-12-13T16:13:25;-0.70;79.87
43772;HTU21D;59066;54.782;32.024;2022-12-13T16:15:55;-0.70;79.62
43772;HTU21D;59066;54.782;32.024;2022-12-13T16:18:31;-0.68;79.91
43772;HTU21D;59066;54.782;32.024;2022-12-13T16:20:58;-0.71;79.75
43772;HTU21D;59066;54.782;32.024;2022-12-13T16:23:26;-0.68;80.09
43772;HTU21D;59066;54.782;32.024;2022-12-13T16:25:53;-0.69;79.88
43772;HTU21D;59066;54.782;32.024;2022-12-13T16:28:21;-0.74;80.13
43772;HTU21D;59066;54.782;32.024;2022-12-13T16:33:20;-0.81;79.97
43772;HTU21D;59066;54.782;32.024;2022-12-13T16:35:52;-0.79;80.22
43772;HTU21D;59066;54.782;32.024;2022-12-13T16:38:20;-0.80;80.24
43772;HTU21D;59066;54.782;32.024;2022-12-13T16:40:54;-0.81;80.47
43772;HTU21D;59066;54.782;32.024;2022-12-13T16:43:24;-0.77;80.24
43772;HTU21D;59066;54.782;32.024;2022-12-13T16:45:59;-0.86;80.42
43772;HTU21D;59066;54.782;32.024;2022-12-13T16:48:50;-0.85;80.27
43772;HTU21D;59066;54.782;32.024;2022-12-13T16:51:18;-0.85;80.25
43772;HTU21D;59066;54.782;32.024;2022-12-13T16:53:46;-0.87;80.40
43772;HTU21D;59066;54.782;32.024;2022-12-13T16:56:14;-0.88;80.44
43772;HTU21D;59066;54.782;32.024;2022-12-13T16:58:48;-0.86;80.51
43772;HTU21D;59066;54.782;32.024;2022-12-13T17:01:19;-0.90;80.24
43772;HTU21D;59066;54.782;32.024;2022-12-13T17:03:47;-0.89;80.58
43772;HTU21D;59066;54.782;32.024;2022-12-13T17:06:19;-0.84;80.49
43772;HTU21D;59066;54.782;32.024;2022-12-13T17:08:47;-0.91;80.47
43772;HTU21D;59066;54.782;32.024;2022-12-13T17:11:15;-0.88;80.62
43772;HTU21D;59066;54.782;32.024;2022-12-13T17:13:44;-0.86;80.59
43772;HTU21D;59066;54.782;32.024;2022-12-13T17:16:13;-0.91;80.69
43772;HTU21D;59066;54.782;32.024;2022-12-13T17:18:41;-0.86;80.72
43772;HTU21D;59066;54.782;32.024;2022-12-13T17:21:09;-0.93;80.53
43772;HTU21D;59066;54.782;32.024;2022-12-13T17:23:37;-0.96;80.59
43772;HTU21D;59066;54.782;32.024;2022-12-13T17:26:06;-0.93;80.89
43772;HTU21D;59066;54.782;32.024;2022-12-13T17:28:34;-0.96;80.78
43772;HTU21D;59066;54.782;32.024;2022-12-13T17:31:09;-1.00;80.49
43772;HTU21D;59066;54.782;32.024;2022-12-13T17:33:41;-1.03;80.78
43772;HTU21D;59066;54.782;32.024;2022-12-13T17:36:11;-1.02;80.84
43772;HTU21D;59066;54.782;32.024;2022-12-13T17:38:43;-1.01;80.99
43772;HTU21D;59066;54.782;32.024;2022-12-13T17:41:14;-1.03;80.70
43772;HTU21D;59066;54.782;32.024;2022-12-13T17:43:42;-0.98;81.04
43772;HTU21D;59066;54.782;32.024;2022-12-13T17:46:15;-1.02;80.72
43772;HTU21D;59066;54.782;32.024;2022-12-13T17:48:43;-1.03;80.94
43772;HTU21D;59066;54.782;32.024;2022-12-13T17:51:12;-0.96;81.10
43772;HTU21D;59066;54.782;32.024;2022-12-13T17:53:41;-0.87;81.21
43772;HTU21D;59066;54.782;32.024;2022-12-13T17:56:11;-0.75;81.00
43772;HTU21D;59066;54.782;32.024;2022-12-13T17:58:39;-0.76;80.78
43772;HTU21D;59066;54.782;32.024;2022-12-13T18:03:40;-0.89;80.70
43772;HTU21D;59066;54.782;32.024;2022-12-13T18:06:08;-0.87;80.78
43772;HTU21D;59066;54.782;32.024;2022-12-13T18:08:36;-0.83;80.62
43772;HTU21D;59066;54.782;32.024;2022-12-13T18:11:06;-0.76;80.90